sensor_id;sensor_type;location;lat;lon;timestamp;pressure;altitude;pressure_sealevel;temperature;humidity
13934;BME280;7039;52.168;9.866;2023-04-16T00:01:55;100702.91;;;10.12;95.14
13934;BME280;7039;52.168;9.866;2023-04-16T00:04:22;100709.66;;;9.97;95.56
13934;BME280;7039;52.168;9.866;2023-04-16T00:06:48;100706.84;;;10.02;95.24
13934;BME280;7039;52.168;9.866;2023-04-16T00:09:15;100709.06;;;9.91;95.80
13934;BME280;7039;52.168;9.866;2023-04-16T00:11:43;100713.50;;;9.89;95.99
13934;BME280;7039;52.168;9.866;2023-04-16T00:14:09;100702.03;;;9.93;95.82
13934;BME280;7039;52.168;9.866;2023-04-16T00:16:35;100709.25;;;10.07;95.69
13934;BME280;7039;52.168;9.866;2023-04-16T00:19:02;100714.09;;;9.95;95.78
13934;BME280;7039;52.168;9.866;2023-04-16T00:21:29;100715.00;;;9.74;96.15
13934;BME280;7039;52.168;9.866;2023-04-16T00:23:55;100715.97;;;9.71;96.90
13934;BME280;7039;52.168;9.866;2023-04-16T00:26:22;100709.09;;;9.70;97.35
13934;BME280;7039;52.168;9.866;2023-04-16T00:28:49;100720.00;;;9.78;97.08
13934;BME280;7039;52.168;9.866;2023-04-16T00:31:16;100714.34;;;9.89;96.41
13934;BME280;7039;52.168;9.866;2023-04-16T00:33:42;100715.88;;;9.74;96.91
13934;BME280;7039;52.168;9.866;2023-04-16T00:36:09;100711.53;;;9.73;97.22
13934;BME280;7039;52.168;9.866;2023-04-16T00:38:35;100720.72;;;9.82;96.47
13934;BME280;7039;52.168;9.866;2023-04-16T00:41:02;100715.53;;;9.61;97.29
13934;BME280;7039;52.168;9.866;2023-04-16T00:43:28;100722.94;;;9.71;97.03
13934;BME280;7039;52.168;9.866;2023-04-16T00:45:57;100719.34;;;9.94;96.05
13934;BME280;7039;52.168;9.866;2023-04-16T00:48:24;100720.19;;;9.94;95.83
13934;BME280;7039;52.168;9.866;2023-04-16T00:50:52;100717.78;;;9.90;95.07
13934;BME280;7039;52.168;9.866;2023-04-16T00:53:19;100720.66;;;10.04;95.27
13934;BME280;7039;52.168;9.866;2023-04-16T00:55:46;100725.78;;;9.85;96.45
13934;BME280;7039;52.168;9.866;2023-04-16T00:58:12;100723.16;;;10.06;95.13
13934;BME280;7039;52.168;9.866;2023-04-16T01:00:39;100719.16;;;9.98;95.30
13934;BME280;7039;52.168;9.866;2023-04-16T01:03:07;100720.19;;;9.94;96.20
13934;BME280;7039;52.168;9.866;2023-04-16T01:05:34;100720.59;;;9.85;96.30
13934;BME280;7039;52.168;9.866;2023-04-16T01:08:01;100727.19;;;9.73;96.78
13934;BME280;7039;52.168;9.866;2023-04-16T01:10:27;100728.16;;;9.91;95.96
13934;BME280;7039;52.168;9.866;2023-04-16T01:12:54;100733.56;;;9.87;95.75
13934;BME280;7039;52.168;9.866;2023-04-16T01:15:20;100729.97;;;9.89;95.55
13934;BME280;7039;52.168;9.866;2023-04-16T01:17:47;100734.94;;;9.95;95.43
13934;BME280;7039;52.168;9.866;2023-04-16T01:20:15;100729.38;;;9.82;95.80
13934;BME280;7039;52.168;9.866;2023-04-16T01:22:42;100732.72;;;9.66;96.95
13934;BME280;7039;52.168;9.866;2023-04-16T01:25:13;100729.97;;;9.69;96.99
13934;BME280;7039;52.168;9.866;2023-04-16T01:27:39;100739.09;;;9.79;96.62
13934;BME280;7039;52.168;9.866;2023-04-16T01:30:06;100745.84;;;9.83;96.26
13934;BME280;7039;52.168;9.866;2023-04-16T01:32:33;100745.06;;;9.60;96.60
13934;BME280;7039;52.168;9.866;2023-04-16T01:35:00;100743.97;;;9.66;96.78
13934;BME280;7039;52.168;9.866;2023-04-16T01:37:26;100742.16;;;9.68;97.00
13934;BME280;7039;52.168;9.866;2023-04-16T01:39:54;100748.25;;;9.88;96.37
13934;BME280;7039;52.168;9.866;2023-04-16T01:42:20;100736.41;;;9.80;96.37
13934;BME280;7039;52.168;9.866;2023-04-16T01:44:47;100740.38;;;9.69;96.51
13934;BME280;7039;52.168;9.866;2023-04-16T01:47:13;100751.66;;;9.69;96.33
13934;BME280;7039;52.168;9.866;2023-04-16T01:49:40;100754.53;;;9.63;96.13
13934;BME280;7039;52.168;9.866;2023-04-16T01:52:06;100746.19;;;9.55;97.17
13934;BME280;7039;52.168;9.866;2023-04-16T01:54:33;100749.03;;;9.49;97.21
13934;BME280;7039;52.168;9.866;2023-04-16T01:57:01;100761.63;;;9.59;96.77
13934;BME280;7039;52.168;9.866;2023-04-16T01:59:27;100757.75;;;9.48;96.74
13934;BME280;7039;52.168;9.866;2023-04-16T02:01:54;100761.44;;;9.42;97.03
13934;BME280;7039;52.168;9.866;2023-04-16T02:04:20;100758.06;;;9.40;96.72
13934;BME280;7039;52.168;9.866;2023-04-16T02:06:47;100764.22;;;9.37;96.90
13934;BME280;7039;52.168;9.866;2023-04-16T02:09:13;100753.16;;;9.32;97.13
13934;BME280;7039;52.168;9.866;2023-04-16T02:11:40;100763.25;;;9.40;97.29
13934;BME280;7039;52.168;9.866;2023-04-16T02:14:08;100764.84;;;9.44;96.86
13934;BME280;7039;52.168;9.866;2023-04-16T02:16:34;100760.78;;;9.37;97.29
13934;BME280;7039;52.168;9.866;2023-04-16T02:19:01;100769.34;;;9.40;97.84
13934;BME280;7039;52.168;9.866;2023-04-16T02:21:28;100768.56;;;9.38;97.91
13934;BME280;7039;52.168;9.866;2023-04-16T02:23:56;100773.16;;;9.32;98.68
13934;BME280;7039;52.168;9.866;2023-04-16T02:26:22;100774.19;;;9.28;98.19
13934;BME280;7039;52.168;9.866;2023-04-16T02:28:49;100774.97;;;9.30;98.99
13934;BME280;7039;52.168;9.866;2023-04-16T02:31:17;100776.34;;;9.16;98.48
13934;BME280;7039;52.168;9.866;2023-04-16T02:33:44;100780.41;;;9.24;98.84
13934;BME280;7039;52.168;9.866;2023-04-16T02:36:10;100778.97;;;9.16;98.56
13934;BME280;7039;52.168;9.866;2023-04-16T02:38:37;100779.34;;;9.29;97.33
13934;BME280;7039;52.168;9.866;2023-04-16T02:41:03;100778.19;;;9.36;96.64
13934;BME280;7039;52.168;9.866;2023-04-16T02:43:30;100784.16;;;9.38;96.27
13934;BME280;7039;52.168;9.866;2023-04-16T02:45:56;100786.63;;;9.19;96.69
13934;BME280;7039;52.168;9.866;2023-04-16T02:48:24;100783.03;;;9.02;97.68
13934;BME280;7039;52.168;9.866;2023-04-16T02:50:51;100787.19;;;9.06;97.29
13934;BME280;7039;52.168;9.866;2023-04-16T02:53:17;100790.09;;;9.20;96.30
13934;BME280;7039;52.168;9.866;2023-04-16T02:55:49;100792.16;;;9.12;96.80
13934;BME280;7039;52.168;9.866;2023-04-16T02:58:16;100788.16;;;9.03;97.10
13934;BME280;7039;52.168;9.866;2023-04-16T03:00:43;100792.09;;;9.13;96.59
13934;BME280;7039;52.168;9.866;2023-04-16T03:03:09;100793.72;;;9.16;96.90
13934;BME280;7039;52.168;9.866;2023-04-16T03:05:37;100797.03;;;9.19;96.28
13934;BME280;7039;52.168;9.866;2023-04-16T03:08:04;100787.19;;;9.06;97.26
13934;BME280;7039;52.168;9.866;2023-04-16T03:10:30;100797.66;;;9.04;97.27
13934;BME280;7039;52.168;9.866;2023-04-16T03:12:57;100801.94;;;9.05;96.64
13934;BME280;7039;52.168;9.866;2023-04-16T03:15:24;100803.03;;;8.99;97.15
13934;BME280;7039;52.168;9.866;2023-04-16T03:17:50;100798.81;;;9.19;95.87
13934;BME280;7039;52.168;9.866;2023-04-16T03:20:16;100806.19;;;9.08;95.91
13934;BME280;7039;52.168;9.866;2023-04-16T03:22:45;100811.09;;;9.15;96.49
13934;BME280;7039;52.168;9.866;2023-04-16T03:25:12;100808.88;;;9.06;95.79
13934;BME280;7039;52.168;9.866;2023-04-16T03:27:39;100800.88;;;8.87;96.71
13934;BME280;7039;52.168;9.866;2023-04-16T03:30:07;100810.84;;;8.99;97.18
13934;BME280;7039;52.168;9.866;2023-04-16T03:32:34;100815.31;;;8.96;97.59
13934;BME280;7039;52.168;9.866;2023-04-16T03:35:01;100811.19;;;8.90;97.56
13934;BME280;7039;52.168;9.866;2023-04-16T03:37:28;100807.22;;;8.80;97.56
13934;BME280;7039;52.168;9.866;2023-04-16T03:39:56;100811.53;;;8.81;97.78
13934;BME280;7039;52.168;9.866;2023-04-16T03:42:23;100810.16;;;8.71;98.80
13934;BME280;7039;52.168;9.866;2023-04-16T03:44:49;100809.22;;;8.73;97.78
13934;BME280;7039;52.168;9.866;2023-04-16T03:47:17;100811.53;;;8.57;98.61
13934;BME280;7039;52.168;9.866;2023-04-16T03:49:44;100819.09;;;8.64;98.83
13934;BME280;7039;52.168;9.866;2023-04-16T03:52:11;100814.63;;;8.67;98.10
13934;BME280;7039;52.168;9.866;2023-04-16T03:54:37;100815.53;;;8.66;98.30
13934;BME280;7039;52.168;9.866;2023-04-16T03:57:05;100817.84;;;8.50;99.22
13934;BME280;7039;52.168;9.866;2023-04-16T03:59:32;100812.97;;;8.41;99.59
13934;BME280;7039;52.168;9.866;2023-04-16T04:01:58;100821.13;;;8.30;99.75
13934;BME280;7039;52.168;9.866;2023-04-16T04:04:24;100810.16;;;8.22;100.00
13934;BME280;7039;52.168;9.866;2023-04-16T04:06:51;100813.44;;;8.27;100.00
13934;BME280;7039;52.168;9.866;2023-04-16T04:09:17;100818.06;;;8.44;99.47
13934;BME280;7039;52.168;9.866;2023-04-16T04:11:44;100822.94;;;8.53;98.64
13934;BME280;7039;52.168;9.866;2023-04-16T04:14:12;100828.13;;;8.53;98.97
13934;BME280;7039;52.168;9.866;2023-04-16T04:16:38;100832.28;;;8.59;97.92
13934;BME280;7039;52.168;9.866;2023-04-16T04:19:05;100833.50;;;8.49;98.51
13934;BME280;7039;52.168;9.866;2023-04-16T04:21:31;100842.72;;;8.57;98.23
13934;BME280;7039;52.168;9.866;2023-04-16T04:23:58;100847.06;;;8.57;98.08
13934;BME280;7039;52.168;9.866;2023-04-16T04:26:24;100842.03;;;8.52;97.63
13934;BME280;7039;52.168;9.866;2023-04-16T04:28:50;100846.06;;;8.61;98.08
13934;BME280;7039;52.168;9.866;2023-04-16T04:31:18;100845.78;;;8.92;96.67
13934;BME280;7039;52.168;9.866;2023-04-16T04:33:45;100850.44;;;8.84;95.62
13934;BME280;7039;52.168;9.866;2023-04-16T04:36:11;100843.06;;;8.72;96.46
13934;BME280;7039;52.168;9.866;2023-04-16T04:38:38;100853.13;;;9.05;95.35
13934;BME280;7039;52.168;9.866;2023-04-16T04:41:04;100859.84;;;9.10;95.39
13934;BME280;7039;52.168;9.866;2023-04-16T04:43:31;100854.19;;;8.99;94.55
13934;BME280;7039;52.168;9.866;2023-04-16T04:45:57;100856.41;;;9.10;93.96
13934;BME280;7039;52.168;9.866;2023-04-16T04:48:25;100850.97;;;8.92;95.11
13934;BME280;7039;52.168;9.866;2023-04-16T04:50:51;100852.56;;;8.96;95.32
13934;BME280;7039;52.168;9.866;2023-04-16T04:53:18;100858.00;;;9.14;94.24
13934;BME280;7039;52.168;9.866;2023-04-16T04:55:45;100863.69;;;9.24;93.55
13934;BME280;7039;52.168;9.866;2023-04-16T04:58:11;100871.31;;;9.06;93.85
13934;BME280;7039;52.168;9.866;2023-04-16T05:00:38;100876.72;;;9.24;93.76
13934;BME280;7039;52.168;9.866;2023-04-16T05:03:05;100876.44;;;9.08;93.89
13934;BME280;7039;52.168;9.866;2023-04-16T05:05:36;100868.69;;;8.83;95.18
13934;BME280;7039;52.168;9.866;2023-04-16T05:08:02;100870.94;;;8.92;95.56
13934;BME280;7039;52.168;9.866;2023-04-16T05:10:29;100880.13;;;9.02;94.32
13934;BME280;7039;52.168;9.866;2023-04-16T05:12:55;100885.00;;;9.11;94.14
13934;BME280;7039;52.168;9.866;2023-04-16T05:15:22;100881.56;;;8.62;95.33
13934;BME280;7039;52.168;9.866;2023-04-16T05:17:48;100889.41;;;8.86;95.55
13934;BME280;7039;52.168;9.866;2023-04-16T05:20:15;100886.00;;;9.07;94.27
13934;BME280;7039;52.168;9.866;2023-04-16T05:22:42;100898.38;;;9.24;94.15
13934;BME280;7039;52.168;9.866;2023-04-16T05:25:09;100896.34;;;8.85;95.63
13934;BME280;7039;52.168;9.866;2023-04-16T05:27:35;100898.44;;;8.75;95.46
13934;BME280;7039;52.168;9.866;2023-04-16T05:30:02;100903.63;;;8.75;96.13
13934;BME280;7039;52.168;9.866;2023-04-16T05:32:29;100903.78;;;8.46;97.31
13934;BME280;7039;52.168;9.866;2023-04-16T05:34:55;100903.47;;;8.28;97.76
13934;BME280;7039;52.168;9.866;2023-04-16T05:37:22;100904.09;;;8.36;97.76
13934;BME280;7039;52.168;9.866;2023-04-16T05:39:50;100904.19;;;8.33;98.49
13934;BME280;7039;52.168;9.866;2023-04-16T05:42:16;100906.31;;;8.22;99.25
13934;BME280;7039;52.168;9.866;2023-04-16T05:44:43;100908.97;;;8.19;100.00
13934;BME280;7039;52.168;9.866;2023-04-16T05:47:09;100914.59;;;8.33;99.49
13934;BME280;7039;52.168;9.866;2023-04-16T05:49:36;100910.59;;;8.23;99.12
13934;BME280;7039;52.168;9.866;2023-04-16T05:52:02;100917.84;;;8.40;98.62
13934;BME280;7039;52.168;9.866;2023-04-16T05:54:29;100924.53;;;8.21;99.47
13934;BME280;7039;52.168;9.866;2023-04-16T05:56:57;100931.97;;;8.31;100.00
13934;BME280;7039;52.168;9.866;2023-04-16T05:59:23;100936.13;;;8.37;99.18
13934;BME280;7039;52.168;9.866;2023-04-16T06:01:50;100928.88;;;8.20;99.67
13934;BME280;7039;52.168;9.866;2023-04-16T06:04:16;100934.94;;;8.21;99.94
13934;BME280;7039;52.168;9.866;2023-04-16T06:06:43;100933.78;;;8.29;99.39
13934;BME280;7039;52.168;9.866;2023-04-16T06:09:10;100942.13;;;8.66;98.48
13934;BME280;7039;52.168;9.866;2023-04-16T06:11:36;100940.72;;;8.55;98.46
13934;BME280;7039;52.168;9.866;2023-04-16T06:14:04;100945.56;;;8.66;97.79
13934;BME280;7039;52.168;9.866;2023-04-16T06:16:30;100945.50;;;8.43;97.98
13934;BME280;7039;52.168;9.866;2023-04-16T06:18:57;100942.13;;;8.39;98.69
13934;BME280;7039;52.168;9.866;2023-04-16T06:21:23;100950.44;;;8.50;98.69
13934;BME280;7039;52.168;9.866;2023-04-16T06:23:50;100948.78;;;8.48;98.64
13934;BME280;7039;52.168;9.866;2023-04-16T06:26:16;100952.03;;;8.54;98.29
13934;BME280;7039;52.168;9.866;2023-04-16T06:28:43;100960.00;;;8.75;97.75
13934;BME280;7039;52.168;9.866;2023-04-16T06:31:11;100959.84;;;8.54;98.74
13934;BME280;7039;52.168;9.866;2023-04-16T06:33:37;100963.47;;;8.49;98.71
13934;BME280;7039;52.168;9.866;2023-04-16T06:36:04;100953.00;;;8.52;98.26
13934;BME280;7039;52.168;9.866;2023-04-16T06:38:30;100964.91;;;8.57;98.27
13934;BME280;7039;52.168;9.866;2023-04-16T06:40:57;100956.06;;;8.36;98.24
13934;BME280;7039;52.168;9.866;2023-04-16T06:43:23;100964.28;;;8.51;98.95
13934;BME280;7039;52.168;9.866;2023-04-16T06:45:50;100970.31;;;8.51;98.01
13934;BME280;7039;52.168;9.866;2023-04-16T06:48:18;100969.88;;;8.65;97.47
13934;BME280;7039;52.168;9.866;2023-04-16T06:50:44;100972.88;;;8.53;97.73
13934;BME280;7039;52.168;9.866;2023-04-16T06:53:11;100979.69;;;8.57;97.72
13934;BME280;7039;52.168;9.866;2023-04-16T06:55:37;100977.34;;;8.49;97.64
13934;BME280;7039;52.168;9.866;2023-04-16T06:58:04;100979.31;;;8.68;97.48
13934;BME280;7039;52.168;9.866;2023-04-16T07:00:31;100977.28;;;8.51;97.72
13934;BME280;7039;52.168;9.866;2023-04-16T07:02:59;100978.88;;;8.55;97.65
13934;BME280;7039;52.168;9.866;2023-04-16T07:05:27;100983.22;;;8.81;96.95
13934;BME280;7039;52.168;9.866;2023-04-16T07:07:55;100984.53;;;8.93;96.39
13934;BME280;7039;52.168;9.866;2023-04-16T07:10:22;100983.13;;;8.83;95.85
13934;BME280;7039;52.168;9.866;2023-04-16T07:12:49;100985.06;;;8.77;96.14
13934;BME280;7039;52.168;9.866;2023-04-16T07:15:16;100988.50;;;9.03;95.33
13934;BME280;7039;52.168;9.866;2023-04-16T07:17:42;100984.59;;;9.15;94.16
13934;BME280;7039;52.168;9.866;2023-04-16T07:20:09;100995.16;;;9.10;94.71
13934;BME280;7039;52.168;9.866;2023-04-16T07:22:37;100992.66;;;8.84;94.95
13934;BME280;7039;52.168;9.866;2023-04-16T07:25:05;100998.53;;;8.89;94.88
13934;BME280;7039;52.168;9.866;2023-04-16T07:27:31;100993.34;;;8.89;94.68
13934;BME280;7039;52.168;9.866;2023-04-16T07:29:58;100995.78;;;8.93;94.71
13934;BME280;7039;52.168;9.866;2023-04-16T07:32:24;101004.19;;;9.02;94.44
13934;BME280;7039;52.168;9.866;2023-04-16T07:34:51;101002.03;;;8.88;94.73
13934;BME280;7039;52.168;9.866;2023-04-16T07:37:17;100997.84;;;8.84;94.64
13934;BME280;7039;52.168;9.866;2023-04-16T07:39:45;101007.69;;;9.24;94.21
13934;BME280;7039;52.168;9.866;2023-04-16T07:42:12;101015.94;;;9.12;93.72
13934;BME280;7039;52.168;9.866;2023-04-16T07:44:39;101013.63;;;9.28;92.98
13934;BME280;7039;52.168;9.866;2023-04-16T07:47:05;101015.75;;;9.41;92.40
13934;BME280;7039;52.168;9.866;2023-04-16T07:49:32;101014.56;;;9.27;91.82
13934;BME280;7039;52.168;9.866;2023-04-16T07:51:58;101018.69;;;9.07;92.02
13934;BME280;7039;52.168;9.866;2023-04-16T07:54:25;101019.59;;;9.31;91.46
13934;BME280;7039;52.168;9.866;2023-04-16T07:56:53;101026.19;;;9.40;90.60
13934;BME280;7039;52.168;9.866;2023-04-16T07:59:19;101027.88;;;9.43;90.03
13934;BME280;7039;52.168;9.866;2023-04-16T08:01:45;101019.56;;;9.56;90.25
13934;BME280;7039;52.168;9.866;2023-04-16T08:04:12;101028.94;;;9.60;88.54
13934;BME280;7039;52.168;9.866;2023-04-16T08:06:41;101019.81;;;9.49;88.67
13934;BME280;7039;52.168;9.866;2023-04-16T08:09:07;101016.25;;;9.28;90.17
13934;BME280;7039;52.168;9.866;2023-04-16T08:11:34;101027.25;;;9.36;89.87
13934;BME280;7039;52.168;9.866;2023-04-16T08:14:01;101034.72;;;9.45;89.93
13934;BME280;7039;52.168;9.866;2023-04-16T08:16:28;101033.50;;;9.30;89.39
13934;BME280;7039;52.168;9.866;2023-04-16T08:18:54;101031.94;;;9.50;89.95
13934;BME280;7039;52.168;9.866;2023-04-16T08:21:21;101036.34;;;9.48;90.23
13934;BME280;7039;52.168;9.866;2023-04-16T08:23:47;101040.25;;;9.59;89.66
13934;BME280;7039;52.168;9.866;2023-04-16T08:26:14;101043.53;;;9.88;88.49
13934;BME280;7039;52.168;9.866;2023-04-16T08:28:41;101057.72;;;10.03;87.47
13934;BME280;7039;52.168;9.866;2023-04-16T08:31:09;101047.84;;;9.89;87.54
13934;BME280;7039;52.168;9.866;2023-04-16T08:33:37;101051.28;;;9.90;87.10
13934;BME280;7039;52.168;9.866;2023-04-16T08:36:04;101053.84;;;9.91;87.71
13934;BME280;7039;52.168;9.866;2023-04-16T08:38:30;101063.59;;;9.86;86.87
13934;BME280;7039;52.168;9.866;2023-04-16T08:41:01;101061.44;;;9.97;87.24
13934;BME280;7039;52.168;9.866;2023-04-16T08:43:31;101066.06;;;9.89;86.58
13934;BME280;7039;52.168;9.866;2023-04-16T08:45:59;101062.84;;;10.06;86.39
13934;BME280;7039;52.168;9.866;2023-04-16T08:48:31;101064.09;;;9.96;86.25
13934;BME280;7039;52.168;9.866;2023-04-16T08:51:00;101077.53;;;10.31;86.78
13934;BME280;7039;52.168;9.866;2023-04-16T08:53:31;101076.28;;;10.63;85.04
13934;BME280;7039;52.168;9.866;2023-04-16T08:56:02;101076.50;;;10.79;83.80
13934;BME280;7039;52.168;9.866;2023-04-16T08:58:31;101081.78;;;10.98;83.77
13934;BME280;7039;52.168;9.866;2023-04-16T09:01:01;101069.06;;;10.70;84.13
13934;BME280;7039;52.168;9.866;2023-04-16T09:03:30;101069.47;;;10.59;84.60
13934;BME280;7039;52.168;9.866;2023-04-16T09:05:58;101072.56;;;10.47;84.53
13934;BME280;7039;52.168;9.866;2023-04-16T09:08:25;101079.13;;;10.57;84.98
13934;BME280;7039;52.168;9.866;2023-04-16T09:10:54;101070.28;;;10.61;83.82
13934;BME280;7039;52.168;9.866;2023-04-16T09:13:21;101071.31;;;10.57;84.87
13934;BME280;7039;52.168;9.866;2023-04-16T09:15:51;101076.53;;;10.99;83.33
13934;BME280;7039;52.168;9.866;2023-04-16T09:18:22;101077.09;;;10.85;83.43
13934;BME280;7039;52.168;9.866;2023-04-16T09:20:52;101079.13;;;10.79;83.04
13934;BME280;7039;52.168;9.866;2023-04-16T09:23:21;101076.00;;;10.69;82.61
13934;BME280;7039;52.168;9.866;2023-04-16T09:25:49;101080.19;;;10.73;83.17
13934;BME280;7039;52.168;9.866;2023-04-16T09:28:37;101085.50;;;10.92;83.87
13934;BME280;7039;52.168;9.866;2023-04-16T09:31:12;101089.78;;;10.73;84.25
13934;BME280;7039;52.168;9.866;2023-04-16T09:33:40;101098.50;;;10.72;83.66
13934;BME280;7039;52.168;9.866;2023-04-16T09:36:22;101101.03;;;10.53;84.14
13934;BME280;7039;52.168;9.866;2023-04-16T09:38:51;101093.69;;;10.40;84.33
13934;BME280;7039;52.168;9.866;2023-04-16T09:41:23;101099.13;;;10.34;84.51
13934;BME280;7039;52.168;9.866;2023-04-16T09:43:57;101085.13;;;10.59;83.76
13934;BME280;7039;52.168;9.866;2023-04-16T09:46:28;101100.59;;;10.63;84.10
13934;BME280;7039;52.168;9.866;2023-04-16T09:49:04;101100.66;;;10.62;83.97
13934;BME280;7039;52.168;9.866;2023-04-16T09:51:51;101094.41;;;10.44;84.93
13934;BME280;7039;52.168;9.866;2023-04-16T09:54:21;101100.03;;;10.77;84.04
13934;BME280;7039;52.168;9.866;2023-04-16T09:59:24;101102.88;;;10.71;83.73
13934;BME280;7039;52.168;9.866;2023-04-16T10:01:50;101113.22;;;10.74;84.04
13934;BME280;7039;52.168;9.866;2023-04-16T10:04:23;101110.00;;;10.68;84.14
13934;BME280;7039;52.168;9.866;2023-04-16T10:07:03;101107.41;;;10.45;84.16
13934;BME280;7039;52.168;9.866;2023-04-16T10:09:36;101112.78;;;10.41;84.47
13934;BME280;7039;52.168;9.866;2023-04-16T10:12:03;101112.44;;;10.27;85.32
13934;BME280;7039;52.168;9.866;2023-04-16T10:14:30;101119.56;;;10.21;85.77
13934;BME280;7039;52.168;9.866;2023-04-16T10:16:58;101116.91;;;10.47;85.54
13934;BME280;7039;52.168;9.866;2023-04-16T10:19:26;101113.63;;;10.41;84.88
13934;BME280;7039;52.168;9.866;2023-04-16T10:21:53;101124.97;;;10.17;86.69
13934;BME280;7039;52.168;9.866;2023-04-16T10:24:22;101125.84;;;10.63;85.00
13934;BME280;7039;52.168;9.866;2023-04-16T10:26:50;101128.13;;;10.49;84.73
13934;BME280;7039;52.168;9.866;2023-04-16T10:29:18;101130.38;;;10.58;84.57
13934;BME280;7039;52.168;9.866;2023-04-16T10:31:46;101135.22;;;10.67;84.39
13934;BME280;7039;52.168;9.866;2023-04-16T10:34:13;101129.66;;;10.54;84.45
13934;BME280;7039;52.168;9.866;2023-04-16T10:36:40;101137.47;;;10.54;85.23
13934;BME280;7039;52.168;9.866;2023-04-16T10:39:09;101139.66;;;10.87;84.21
13934;BME280;7039;52.168;9.866;2023-04-16T10:41:37;101145.31;;;11.19;83.57
13934;BME280;7039;52.168;9.866;2023-04-16T10:44:06;101147.63;;;10.84;84.03
13934;BME280;7039;52.168;9.866;2023-04-16T10:46:36;101145.59;;;10.69;84.81
13934;BME280;7039;52.168;9.866;2023-04-16T10:49:12;101144.16;;;10.61;85.18
13934;BME280;7039;52.168;9.866;2023-04-16T10:51:39;101144.22;;;10.60;84.93
13934;BME280;7039;52.168;9.866;2023-04-16T10:54:19;101149.28;;;10.85;85.07
13934;BME280;7039;52.168;9.866;2023-04-16T10:56:48;101146.34;;;10.72;85.05
13934;BME280;7039;52.168;9.866;2023-04-16T10:59:17;101157.31;;;10.80;86.37
13934;BME280;7039;52.168;9.866;2023-04-16T11:01:45;101154.19;;;10.72;87.64
13934;BME280;7039;52.168;9.866;2023-04-16T11:04:31;101154.22;;;10.71;87.77
13934;BME280;7039;52.168;9.866;2023-04-16T11:07:06;101152.94;;;10.59;88.57
13934;BME280;7039;52.168;9.866;2023-04-16T11:09:54;101157.13;;;10.41;88.47
13934;BME280;7039;52.168;9.866;2023-04-16T11:12:24;101153.19;;;10.53;88.62
13934;BME280;7039;52.168;9.866;2023-04-16T11:14:53;101153.97;;;10.55;89.00
13934;BME280;7039;52.168;9.866;2023-04-16T11:17:21;101161.19;;;10.24;90.42
13934;BME280;7039;52.168;9.866;2023-04-16T11:20:04;101161.50;;;10.40;90.07
13934;BME280;7039;52.168;9.866;2023-04-16T11:22:34;101163.09;;;10.19;91.87
13934;BME280;7039;52.168;9.866;2023-04-16T11:25:04;101164.69;;;10.23;91.80
13934;BME280;7039;52.168;9.866;2023-04-16T11:27:32;101165.53;;;10.00;93.69
13934;BME280;7039;52.168;9.866;2023-04-16T11:30:01;101163.78;;;10.01;94.36
13934;BME280;7039;52.168;9.866;2023-04-16T11:32:30;101164.13;;;9.92;95.41
13934;BME280;7039;52.168;9.866;2023-04-16T11:34:58;101172.63;;;10.20;95.03
13934;BME280;7039;52.168;9.866;2023-04-16T11:37:31;101171.88;;;10.17;95.61
13934;BME280;7039;52.168;9.866;2023-04-16T11:40:00;101175.88;;;10.27;94.73
13934;BME280;7039;52.168;9.866;2023-04-16T11:42:36;101178.53;;;10.02;97.45
13934;BME280;7039;52.168;9.866;2023-04-16T11:45:06;101176.94;;;10.21;97.33
13934;BME280;7039;52.168;9.866;2023-04-16T11:47:41;101186.25;;;10.29;96.86
13934;BME280;7039;52.168;9.866;2023-04-16T11:50:18;101187.44;;;10.43;95.67
13934;BME280;7039;52.168;9.866;2023-04-16T11:52:46;101191.25;;;10.35;95.60
13934;BME280;7039;52.168;9.866;2023-04-16T11:55:13;101177.94;;;10.42;95.36
13934;BME280;7039;52.168;9.866;2023-04-16T11:57:41;101182.97;;;10.47;94.71
13934;BME280;7039;52.168;9.866;2023-04-16T12:00:08;101186.66;;;10.41;95.19
13934;BME280;7039;52.168;9.866;2023-04-16T12:02:39;101188.81;;;10.54;95.08
13934;BME280;7039;52.168;9.866;2023-04-16T12:05:07;101186.38;;;10.24;95.59
13934;BME280;7039;52.168;9.866;2023-04-16T12:07:50;101192.06;;;10.12;95.75
13934;BME280;7039;52.168;9.866;2023-04-16T12:10:17;101185.50;;;10.25;95.84
13934;BME280;7039;52.168;9.866;2023-04-16T12:12:45;101194.81;;;10.09;96.59
13934;BME280;7039;52.168;9.866;2023-04-16T12:15:11;101196.06;;;10.22;96.22
13934;BME280;7039;52.168;9.866;2023-04-16T12:17:38;101196.59;;;10.07;97.52
13934;BME280;7039;52.168;9.866;2023-04-16T12:20:08;101186.34;;;10.25;97.31
13934;BME280;7039;52.168;9.866;2023-04-16T12:22:36;101188.78;;;10.07;97.54
13934;BME280;7039;52.168;9.866;2023-04-16T12:25:04;101193.84;;;10.11;97.64
13934;BME280;7039;52.168;9.866;2023-04-16T12:27:41;101201.69;;;10.10;97.71
13934;BME280;7039;52.168;9.866;2023-04-16T12:30:12;101199.88;;;10.37;97.38
13934;BME280;7039;52.168;9.866;2023-04-16T12:33:14;101201.53;;;10.61;96.79
13934;BME280;7039;52.168;9.866;2023-04-16T12:35:41;101202.06;;;10.48;95.97
13934;BME280;7039;52.168;9.866;2023-04-16T12:38:09;101202.75;;;10.53;96.61
13934;BME280;7039;52.168;9.866;2023-04-16T12:40:36;101204.78;;;10.68;95.49
13934;BME280;7039;52.168;9.866;2023-04-16T12:43:03;101203.06;;;10.67;95.50
13934;BME280;7039;52.168;9.866;2023-04-16T12:45:31;101196.69;;;10.29;96.59
13934;BME280;7039;52.168;9.866;2023-04-16T12:47:58;101202.44;;;10.38;96.21
13934;BME280;7039;52.168;9.866;2023-04-16T12:50:24;101200.75;;;10.59;95.40
13934;BME280;7039;52.168;9.866;2023-04-16T12:52:52;101208.09;;;10.72;94.98
13934;BME280;7039;52.168;9.866;2023-04-16T12:55:19;101199.13;;;10.57;95.24
13934;BME280;7039;52.168;9.866;2023-04-16T12:57:45;101198.31;;;10.55;96.25
13934;BME280;7039;52.168;9.866;2023-04-16T13:00:13;101199.78;;;10.62;95.91
13934;BME280;7039;52.168;9.866;2023-04-16T13:02:41;101206.97;;;10.79;95.80
13934;BME280;7039;52.168;9.866;2023-04-16T13:05:08;101209.69;;;10.98;94.86
13934;BME280;7039;52.168;9.866;2023-04-16T13:07:35;101207.13;;;10.96;94.84
13934;BME280;7039;52.168;9.866;2023-04-16T13:10:02;101211.75;;;11.12;94.25
13934;BME280;7039;52.168;9.866;2023-04-16T13:12:28;101205.91;;;11.27;93.62
13934;BME280;7039;52.168;9.866;2023-04-16T13:14:56;101215.94;;;11.16;93.85